aviador You're here:

SGES Decoded Metar

GUARANY in PARAGUAY
Report Time2018-04-27 03:00:00
UTC Time2018-04-27 03:03:24
Flight Rules mvfr MVFR
Wind150° at 03 kt
W.Decomp.*RWY 23: 1.3 kt HW 2.7 kt LCW
W.Rank150° ranks 11
Current wind is below 150° avg. (5.4)
Visibility5000 m
Phenomena:Mist
Clouds:N/A
Expected CloudBase > 400 ft AGL from Temp-Dew spread
CeilingNone
Temp20°C (ISA +11)
Dew Point19°C (94% RH)
QNH1014 hPa
Density Alt4,281 ft
Elevation2,785 ft
Report Wrong Elevation
Raw Report
METAR SGES 270300Z 15003KT 5000 BR NSC 20/19 Q1014=

Extra information for SGES:More info

Metar Taf Metar & Taf Last 4 Metars F.Rules Stats Wind Profile Meteogram Temp Stats Airport Information Weather charts Add Link Nearby VenuesMetar ALERT Operation Metar Decoded Social comments